Terminal Aerodrome Forecast
Issued by NWS Cleveland, OH

Home | Current Version | Previous Version | Graphics & Text | Print | Product List | Glossary On
Versions: 1 2 3 4 5 6 7 8 9 10 11 12 13 14 15 16 17 18 19 20 21 22 23 24 25 26 27
180
FTUS41 KCLE 081512 AAE
TAFMFD
TAF AMD
KMFD 081512Z 0815/0912 27006KT 2SM -SN SCT003 OVC006
      TEMPO 0815/0819 3/4SM -SN BR OVC003
     FM081900 27008KT 4SM -SN SCT006 OVC012
      TEMPO 0819/0821 1 1/2SM -SN OVC004
     FM082300 28005KT 6SM BR OVC012
     FM090300 28005KT 2SM -SN BR OVC008=

USA.gov is the U.S. government's official web portal to all federal, state and local government web resources and services.